sensor_id;sensor_type;location;lat;lon;timestamp;pressure;altitude;pressure_sealevel;temperature;humidity
48035;BME280;33812;46.480;6.834;2023-04-25T00:01:49;93235.91;;;21.57;38.08
48035;BME280;33812;46.480;6.834;2023-04-25T00:05:51;93224.06;;;21.56;37.89
48035;BME280;33812;46.480;6.834;2023-04-25T00:09:54;93211.47;;;21.55;37.95
48035;BME280;33812;46.480;6.834;2023-04-25T00:13:56;93207.16;;;21.54;37.95
48035;BME280;33812;46.480;6.834;2023-04-25T00:18:00;93191.81;;;21.53;37.72
48035;BME280;33812;46.480;6.834;2023-04-25T00:22:01;93203.94;;;21.56;37.59
48035;BME280;33812;46.480;6.834;2023-04-25T00:26:05;93196.88;;;21.55;37.35
48035;BME280;33812;46.480;6.834;2023-04-25T00:30:07;93197.31;;;21.53;37.82
48035;BME280;33812;46.480;6.834;2023-04-25T00:34:09;93200.88;;;21.54;37.38
48035;BME280;33812;46.480;6.834;2023-04-25T00:38:11;93195.63;;;21.56;37.37
48035;BME280;33812;46.480;6.834;2023-04-25T00:42:15;93211.94;;;21.54;37.33
48035;BME280;33812;46.480;6.834;2023-04-25T00:46:17;93208.53;;;21.49;37.48
48035;BME280;33812;46.480;6.834;2023-04-25T00:50:19;93187.34;;;21.56;37.42
48035;BME280;33812;46.480;6.834;2023-04-25T00:54:21;93189.81;;;21.54;37.75
48035;BME280;33812;46.480;6.834;2023-04-25T00:58:25;93192.25;;;21.52;37.95
48035;BME280;33812;46.480;6.834;2023-04-25T01:02:27;93189.03;;;21.53;37.86
48035;BME280;33812;46.480;6.834;2023-04-25T01:06:31;93185.94;;;21.51;37.68
48035;BME280;33812;46.480;6.834;2023-04-25T01:10:33;93182.72;;;21.53;37.54
48035;BME280;33812;46.480;6.834;2023-04-25T01:14:36;93183.97;;;21.52;37.75
48035;BME280;33812;46.480;6.834;2023-04-25T01:18:40;93180.41;;;21.51;37.70
48035;BME280;33812;46.480;6.834;2023-04-25T01:22:44;93182.88;;;21.49;37.75
48035;BME280;33812;46.480;6.834;2023-04-25T01:26:46;93173.22;;;21.54;37.64
48035;BME280;33812;46.480;6.834;2023-04-25T01:30:51;93180.88;;;21.49;38.07
48035;BME280;33812;46.480;6.834;2023-04-25T01:34:53;93189.81;;;21.54;37.91
48035;BME280;33812;46.480;6.834;2023-04-25T01:38:57;93191.63;;;21.47;37.86
48035;BME280;33812;46.480;6.834;2023-04-25T01:42:59;93199.44;;;21.49;37.85
48035;BME280;33812;46.480;6.834;2023-04-25T01:47:01;93212.19;;;21.46;37.48
48035;BME280;33812;46.480;6.834;2023-04-25T01:51:03;93222.34;;;21.49;37.96
48035;BME280;33812;46.480;6.834;2023-04-25T01:55:09;93218.06;;;21.48;37.76
48035;BME280;33812;46.480;6.834;2023-04-25T01:59:11;93215.91;;;21.53;37.82
48035;BME280;33812;46.480;6.834;2023-04-25T02:03:13;93201.16;;;21.46;37.90
48035;BME280;33812;46.480;6.834;2023-04-25T02:07:15;93185.94;;;21.51;37.84
48035;BME280;33812;46.480;6.834;2023-04-25T02:11:18;93183.97;;;21.52;37.99
48035;BME280;33812;46.480;6.834;2023-04-25T02:15:20;93183.31;;;21.47;37.82
48035;BME280;33812;46.480;6.834;2023-04-25T02:19:22;93193.91;;;21.49;37.80
48035;BME280;33812;46.480;6.834;2023-04-25T02:23:24;93196.22;;;21.50;37.90
48035;BME280;33812;46.480;6.834;2023-04-25T02:27:27;93196.22;;;21.50;37.99
48035;BME280;33812;46.480;6.834;2023-04-25T02:31:29;93202.22;;;21.49;37.86
48035;BME280;33812;46.480;6.834;2023-04-25T02:35:30;93199.59;;;21.45;37.78
48035;BME280;33812;46.480;6.834;2023-04-25T02:39:32;93203.13;;;21.46;37.76
48035;BME280;33812;46.480;6.834;2023-04-25T02:43:35;93205.13;;;21.45;38.03
48035;BME280;33812;46.480;6.834;2023-04-25T02:47:37;93205.91;;;21.46;37.83
48035;BME280;33812;46.480;6.834;2023-04-25T02:51:43;93209.44;;;21.46;37.87
48035;BME280;33812;46.480;6.834;2023-04-25T02:55:44;93201.16;;;21.46;37.83
48035;BME280;33812;46.480;6.834;2023-04-25T02:59:48;93194.84;;;21.46;37.86
48035;BME280;33812;46.480;6.834;2023-04-25T03:03:49;93180.22;;;21.45;37.67
48035;BME280;33812;46.480;6.834;2023-04-25T03:07:51;93160.44;;;21.47;37.57
48035;BME280;33812;46.480;6.834;2023-04-25T03:11:53;93162.13;;;21.44;37.73
48035;BME280;33812;46.480;6.834;2023-04-25T03:15:56;93167.19;;;21.46;37.42
48035;BME280;33812;46.480;6.834;2023-04-25T03:19:58;93179.16;;;21.43;37.58
48035;BME280;33812;46.480;6.834;2023-04-25T03:24:02;93176.84;;;21.41;37.68
48035;BME280;33812;46.480;6.834;2023-04-25T03:28:04;93164.25;;;21.40;37.58
48035;BME280;33812;46.480;6.834;2023-04-25T03:32:07;93166.13;;;21.43;37.73
48035;BME280;33812;46.480;6.834;2023-04-25T03:36:17;93161.47;;;21.40;37.58
48035;BME280;33812;46.480;6.834;2023-04-25T03:40:20;93166.13;;;21.43;37.65
48035;BME280;33812;46.480;6.834;2023-04-25T03:44:22;93164.56;;;21.42;37.60
48035;BME280;33812;46.480;6.834;2023-04-25T03:48:26;93159.34;;;21.44;37.52
48035;BME280;33812;46.480;6.834;2023-04-25T03:52:29;93155.53;;;21.42;37.51
48035;BME280;33812;46.480;6.834;2023-04-25T03:56:31;93149.22;;;21.41;37.69
48035;BME280;33812;46.480;6.834;2023-04-25T04:00:34;93146.91;;;21.40;37.47
48035;BME280;33812;46.480;6.834;2023-04-25T04:04:37;93163.50;;;21.40;37.54
48035;BME280;33812;46.480;6.834;2023-04-25T04:08:40;93155.53;;;21.42;37.64
48035;BME280;33812;46.480;6.834;2023-04-25T04:12:43;93164.25;;;21.40;37.84
48035;BME280;33812;46.480;6.834;2023-04-25T04:16:45;93158.28;;;21.42;37.58
48035;BME280;33812;46.480;6.834;2023-04-25T04:20:48;93151.97;;;21.41;37.52
48035;BME280;33812;46.480;6.834;2023-04-25T04:24:50;93148.44;;;21.41;37.64
48035;BME280;33812;46.480;6.834;2023-04-25T04:28:52;93144.47;;;21.42;37.73
48035;BME280;33812;46.480;6.834;2023-04-25T04:32:55;93149.22;;;21.41;37.51
48035;BME280;33812;46.480;6.834;2023-04-25T04:36:58;93150.00;;;21.42;37.45
48035;BME280;33812;46.480;6.834;2023-04-25T04:41:00;93161.06;;;21.42;37.35
48035;BME280;33812;46.480;6.834;2023-04-25T04:45:03;93168.09;;;21.43;37.42
48035;BME280;33812;46.480;6.834;2023-04-25T04:49:05;93158.72;;;21.40;37.38
48035;BME280;33812;46.480;6.834;2023-04-25T04:53:08;93163.81;;;21.42;37.45
48035;BME280;33812;46.480;6.834;2023-04-25T04:57:10;93169.78;;;21.40;37.30
48035;BME280;33812;46.480;6.834;2023-04-25T05:01:13;93178.53;;;21.38;37.09
48035;BME280;33812;46.480;6.834;2023-04-25T05:05:18;93179.94;;;21.43;37.30
48035;BME280;33812;46.480;6.834;2023-04-25T05:09:21;93171.31;;;21.41;37.39
48035;BME280;33812;46.480;6.834;2023-04-25T05:13:26;93177.63;;;21.42;37.36
48035;BME280;33812;46.480;6.834;2023-04-25T05:17:34;93181.94;;;21.43;37.17
48035;BME280;33812;46.480;6.834;2023-04-25T05:21:36;93181.59;;;21.41;37.17
48035;BME280;33812;46.480;6.834;2023-04-25T05:25:39;93179.94;;;21.43;37.06
48035;BME280;33812;46.480;6.834;2023-04-25T05:29:41;93188.38;;;21.40;37.16
48035;BME280;33812;46.480;6.834;2023-04-25T05:33:44;93191.13;;;21.40;37.04
48035;BME280;33812;46.480;6.834;2023-04-25T05:37:47;93186.34;;;21.40;37.04
48035;BME280;33812;46.480;6.834;2023-04-25T05:41:51;93181.75;;;21.37;37.26
48035;BME280;33812;46.480;6.834;2023-04-25T05:45:53;93199.59;;;21.45;37.00
48035;BME280;33812;46.480;6.834;2023-04-25T05:49:54;93202.94;;;21.40;37.09
48035;BME280;33812;46.480;6.834;2023-04-25T05:53:56;93202.81;;;21.44;37.08
48035;BME280;33812;46.480;6.834;2023-04-25T05:57:59;93202.06;;;21.43;36.64
48035;BME280;33812;46.480;6.834;2023-04-25T06:02:03;93209.72;;;21.39;36.67
48035;BME280;33812;46.480;6.834;2023-04-25T06:06:05;93190.28;;;21.52;36.68
48035;BME280;33812;46.480;6.834;2023-04-25T06:10:08;93200.41;;;21.55;36.90
48035;BME280;33812;46.480;6.834;2023-04-25T06:14:11;93219.91;;;21.52;37.02
48035;BME280;33812;46.480;6.834;2023-04-25T06:18:13;93209.19;;;21.63;36.90
48035;BME280;33812;46.480;6.834;2023-04-25T06:22:15;93206.22;;;21.48;36.84
48035;BME280;33812;46.480;6.834;2023-04-25T06:26:17;93220.81;;;21.48;37.26
48035;BME280;33812;46.480;6.834;2023-04-25T06:30:21;93218.53;;;21.56;37.60
48035;BME280;33812;46.480;6.834;2023-04-25T06:34:25;93218.22;;;21.54;37.07
48035;BME280;33812;46.480;6.834;2023-04-25T06:38:27;93220.50;;;21.46;37.22
48035;BME280;33812;46.480;6.834;2023-04-25T06:42:29;93221.28;;;21.47;37.04
48035;BME280;33812;46.480;6.834;2023-04-25T06:46:32;93228.97;;;21.52;37.15
48035;BME280;33812;46.480;6.834;2023-04-25T06:50:34;93229.38;;;21.41;37.07
48035;BME280;33812;46.480;6.834;2023-04-25T06:54:36;93226.63;;;21.41;37.81
48035;BME280;33812;46.480;6.834;2023-04-25T06:58:37;93223.25;;;21.46;38.43
48035;BME280;33812;46.480;6.834;2023-04-25T07:02:42;93233.59;;;21.55;38.15
48035;BME280;33812;46.480;6.834;2023-04-25T07:06:44;93224.13;;;21.66;37.71
48035;BME280;33812;46.480;6.834;2023-04-25T07:10:47;93222.13;;;21.66;38.01
48035;BME280;33812;46.480;6.834;2023-04-25T07:14:49;93230.72;;;21.68;38.18
48035;BME280;33812;46.480;6.834;2023-04-25T07:18:52;93225.19;;;21.68;38.47
48035;BME280;33812;46.480;6.834;2023-04-25T07:22:54;93216.28;;;21.64;38.18
48035;BME280;33812;46.480;6.834;2023-04-25T07:26:58;93222.88;;;21.67;38.45
48035;BME280;33812;46.480;6.834;2023-04-25T07:31:00;93227.19;;;21.68;38.16
48035;BME280;33812;46.480;6.834;2023-04-25T07:35:06;93230.72;;;21.68;38.50
48035;BME280;33812;46.480;6.834;2023-04-25T07:39:10;93234.91;;;21.73;38.32
48035;BME280;33812;46.480;6.834;2023-04-25T07:43:12;93245.19;;;21.72;38.51
48035;BME280;33812;46.480;6.834;2023-04-25T07:47:16;93231.94;;;21.67;38.80
48035;BME280;33812;46.480;6.834;2023-04-25T07:51:20;93247.50;;;21.74;39.15
48035;BME280;33812;46.480;6.834;2023-04-25T07:55:23;93245.50;;;21.74;38.71
48035;BME280;33812;46.480;6.834;2023-04-25T07:59:28;93246.25;;;21.75;38.34
48035;BME280;33812;46.480;6.834;2023-04-25T08:03:30;93253.66;;;21.78;38.26
48035;BME280;33812;46.480;6.834;2023-04-25T08:07:33;93253.25;;;21.80;38.31
48035;BME280;33812;46.480;6.834;2023-04-25T08:11:36;93263.06;;;21.81;38.20
48035;BME280;33812;46.480;6.834;2023-04-25T08:15:40;93265.47;;;21.79;37.92
48035;BME280;33812;46.480;6.834;2023-04-25T08:19:42;93264.72;;;21.78;37.76
48035;BME280;33812;46.480;6.834;2023-04-25T08:23:45;93266.41;;;21.76;37.91
48035;BME280;33812;46.480;6.834;2023-04-25T08:27:54;93286.75;;;21.82;37.91
48035;BME280;33812;46.480;6.834;2023-04-25T08:32:01;93289.53;;;21.82;38.45
48035;BME280;33812;46.480;6.834;2023-04-25T08:36:03;93295.97;;;21.88;38.56
48035;BME280;33812;46.480;6.834;2023-04-25T08:40:11;93298.44;;;21.86;38.49
48035;BME280;33812;46.480;6.834;2023-04-25T08:44:17;93307.06;;;21.88;38.64
48035;BME280;33812;46.480;6.834;2023-04-25T08:48:23;93319.66;;;21.89;38.48
48035;BME280;33812;46.480;6.834;2023-04-25T08:52:28;93315.66;;;21.90;38.70
48035;BME280;33812;46.480;6.834;2023-04-25T08:56:34;93328.28;;;21.91;38.57
48035;BME280;33812;46.480;6.834;2023-04-25T09:00:37;93325.50;;;21.91;39.02
48035;BME280;33812;46.480;6.834;2023-04-25T09:04:42;93327.34;;;21.94;38.44
48035;BME280;33812;46.480;6.834;2023-04-25T09:08:44;93330.56;;;21.93;38.13
48035;BME280;33812;46.480;6.834;2023-04-25T09:13:01;93338.75;;;21.07;33.13
48035;BME280;33812;46.480;6.834;2023-04-25T09:17:04;93341.69;;;21.48;34.87
48035;BME280;33812;46.480;6.834;2023-04-25T09:21:09;93340.13;;;21.69;35.31
48035;BME280;33812;46.480;6.834;2023-04-25T09:25:12;93352.59;;;21.74;35.35
48035;BME280;33812;46.480;6.834;2023-04-25T09:33:17;93362.00;;;21.77;35.94
48035;BME280;33812;46.480;6.834;2023-04-25T09:37:21;93362.75;;;21.77;36.19
48035;BME280;33812;46.480;6.834;2023-04-25T09:41:24;93359.22;;;21.77;36.22
48035;BME280;33812;46.480;6.834;2023-04-25T09:45:29;93372.19;;;21.80;36.24
48035;BME280;33812;46.480;6.834;2023-04-25T09:49:31;93383.78;;;21.74;36.04
48035;BME280;33812;46.480;6.834;2023-04-25T09:53:34;93393.06;;;21.81;36.53
48035;BME280;33812;46.480;6.834;2023-04-25T09:57:37;93406.91;;;21.81;37.43
48035;BME280;33812;46.480;6.834;2023-04-25T10:01:43;93414.28;;;21.84;37.16
48035;BME280;33812;46.480;6.834;2023-04-25T10:05:44;93411.53;;;21.84;37.39
48035;BME280;33812;46.480;6.834;2023-04-25T10:09:48;93422.59;;;21.84;37.23
48035;BME280;33812;46.480;6.834;2023-04-25T10:13:51;93415.06;;;21.84;37.10
48035;BME280;33812;46.480;6.834;2023-04-25T10:17:56;93429.56;;;21.89;37.70
48035;BME280;33812;46.480;6.834;2023-04-25T10:22:04;93427.69;;;21.85;37.54
48035;BME280;33812;46.480;6.834;2023-04-25T10:26:09;93437.84;;;21.89;37.84
48035;BME280;33812;46.480;6.834;2023-04-25T10:30:14;93433.84;;;21.90;37.64
48035;BME280;33812;46.480;6.834;2023-04-25T10:34:38;93443.72;;;21.91;37.62
48035;BME280;33812;46.480;6.834;2023-04-25T10:38:43;93449.66;;;21.89;37.96
48035;BME280;33812;46.480;6.834;2023-04-25T10:42:45;93442.16;;;21.90;38.49
48035;BME280;33812;46.480;6.834;2023-04-25T10:46:46;93446.91;;;21.89;38.36
48035;BME280;33812;46.480;6.834;2023-04-25T10:50:50;93443.72;;;21.91;37.76
48035;BME280;33812;46.480;6.834;2023-04-25T10:55:08;93443.72;;;21.91;38.37
48035;BME280;33812;46.480;6.834;2023-04-25T10:59:12;93441.81;;;21.88;38.74
48035;BME280;33812;46.480;6.834;2023-04-25T11:03:21;93449.09;;;21.94;38.25
48035;BME280;33812;46.480;6.834;2023-04-25T11:07:34;93452.78;;;21.91;38.43
48035;BME280;33812;46.480;6.834;2023-04-25T11:11:38;93453.09;;;21.93;38.75
48035;BME280;33812;46.480;6.834;2023-04-25T11:15:40;93453.41;;;21.95;38.13
48035;BME280;33812;46.480;6.834;2023-04-25T11:19:43;93448.22;;;21.97;38.11
48035;BME280;33812;46.480;6.834;2023-04-25T11:23:46;93445.75;;;22.00;38.29
48035;BME280;33812;46.480;6.834;2023-04-25T11:27:52;93443.44;;;21.98;37.87
48035;BME280;33812;46.480;6.834;2023-04-25T11:31:55;93446.06;;;22.02;38.28
48035;BME280;33812;46.480;6.834;2023-04-25T11:35:58;93443.94;;;22.06;38.28
48035;BME280;33812;46.480;6.834;2023-04-25T11:40:02;93444.41;;;22.04;38.35
48035;BME280;33812;46.480;6.834;2023-04-25T11:44:06;93443.38;;;22.11;38.47
48035;BME280;33812;46.480;6.834;2023-04-25T11:48:08;93446.47;;;22.13;38.52
48035;BME280;33812;46.480;6.834;2023-04-25T11:52:10;93444.59;;;22.10;37.80
48035;BME280;33812;46.480;6.834;2023-04-25T11:56:13;93440.72;;;22.07;37.60
48035;BME280;33812;46.480;6.834;2023-04-25T12:00:17;93432.28;;;22.11;37.14
48035;BME280;33812;46.480;6.834;2023-04-25T12:04:21;93429.53;;;22.11;37.41
48035;BME280;33812;46.480;6.834;2023-04-25T12:08:23;93437.38;;;22.13;37.44
48035;BME280;33812;46.480;6.834;2023-04-25T12:12:32;93433.81;;;22.12;37.53
48035;BME280;33812;46.480;6.834;2023-04-25T12:16:40;93432.63;;;22.13;37.65
48035;BME280;33812;46.480;6.834;2023-04-25T12:20:43;93448.31;;;22.16;37.91
48035;BME280;33812;46.480;6.834;2023-04-25T12:24:45;93448.31;;;22.16;38.05
48035;BME280;33812;46.480;6.834;2023-04-25T12:28:48;93445.09;;;22.18;37.84
48035;BME280;33812;46.480;6.834;2023-04-25T12:32:50;93455.38;;;22.17;38.18
48035;BME280;33812;46.480;6.834;2023-04-25T12:36:52;93450.16;;;22.19;38.28
48035;BME280;33812;46.480;6.834;2023-04-25T12:40:54;93452.16;;;22.19;38.42
48035;BME280;33812;46.480;6.834;2023-04-25T12:44:57;93450.50;;;22.21;38.16
48035;BME280;33812;46.480;6.834;2023-04-25T12:48:59;93450.50;;;22.21;38.26
48035;BME280;33812;46.480;6.834;2023-04-25T12:53:01;93448.06;;;22.24;38.30
48035;BME280;33812;46.480;6.834;2023-04-25T12:57:04;93442.50;;;22.24;38.62
48035;BME280;33812;46.480;6.834;2023-04-25T13:01:08;93445.59;;;22.26;38.57
48035;BME280;33812;46.480;6.834;2023-04-25T13:05:10;93434.06;;;22.27;38.65
48035;BME280;33812;46.480;6.834;2023-04-25T13:09:11;93439.63;;;22.27;38.70
48035;BME280;33812;46.480;6.834;2023-04-25T13:13:13;93438.38;;;22.28;38.68
48035;BME280;33812;46.480;6.834;2023-04-25T13:17:16;93440.38;;;22.28;38.85
48035;BME280;33812;46.480;6.834;2023-04-25T13:21:18;93445.00;;;22.31;38.76
48035;BME280;33812;46.480;6.834;2023-04-25T13:25:20;93440.69;;;22.30;38.91
48035;BME280;33812;46.480;6.834;2023-04-25T13:29:22;93439.16;;;22.29;38.93
48035;BME280;33812;46.480;6.834;2023-04-25T13:33:25;93437.13;;;22.29;38.96
48035;BME280;33812;46.480;6.834;2023-04-25T13:37:27;93442.25;;;22.31;38.71
48035;BME280;33812;46.480;6.834;2023-04-25T13:41:30;93425.63;;;22.31;38.81
48035;BME280;33812;46.480;6.834;2023-04-25T13:45:31;93434.25;;;22.33;38.44
48035;BME280;33812;46.480;6.834;2023-04-25T13:49:35;93426.25;;;22.35;38.59
48035;BME280;33812;46.480;6.834;2023-04-25T13:53:36;93428.56;;;22.37;38.19
48035;BME280;33812;46.480;6.834;2023-04-25T13:57:39;93416.75;;;22.36;38.30
48035;BME280;33812;46.480;6.834;2023-04-25T14:01:41;93421.03;;;22.37;38.31
48035;BME280;33812;46.480;6.834;2023-04-25T14:05:44;93417.03;;;22.38;38.39
48035;BME280;33812;46.480;6.834;2023-04-25T14:09:46;93414.25;;;22.38;38.47
48035;BME280;33812;46.480;6.834;2023-04-25T14:13:48;93411.34;;;22.42;38.20
48035;BME280;33812;46.480;6.834;2023-04-25T14:17:50;93414.91;;;22.42;38.51
48035;BME280;33812;46.480;6.834;2023-04-25T14:21:53;93413.38;;;22.41;38.27
48035;BME280;33812;46.480;6.834;2023-04-25T14:25:55;93418.78;;;22.45;38.20
48035;BME280;33812;46.480;6.834;2023-04-25T14:29:57;93417.22;;;22.44;38.37
48035;BME280;33812;46.480;6.834;2023-04-25T14:33:59;93415.56;;;22.46;38.41
48035;BME280;33812;46.480;6.834;2023-04-25T14:38:02;93415.56;;;22.46;38.24
48035;BME280;33812;46.480;6.834;2023-04-25T14:42:04;93409.09;;;22.50;38.37
48035;BME280;33812;46.480;6.834;2023-04-25T14:46:05;93408.78;;;22.48;38.31
48035;BME280;33812;46.480;6.834;2023-04-25T14:50:08;93413.06;;;22.49;38.00
48035;BME280;33812;46.480;6.834;2023-04-25T14:54:12;93414.63;;;22.50;38.06
48035;BME280;33812;46.480;6.834;2023-04-25T14:58:13;93422.94;;;22.50;37.82
48035;BME280;33812;46.480;6.834;2023-04-25T15:02:17;93414.59;;;22.40;37.36
48035;BME280;33812;46.480;6.834;2023-04-25T15:06:19;93422.81;;;22.21;35.76
48035;BME280;33812;46.480;6.834;2023-04-25T15:10:22;93416.16;;;22.41;35.72
48035;BME280;33812;46.480;6.834;2023-04-25T15:14:24;93413.06;;;22.49;35.65
48035;BME280;33812;46.480;6.834;2023-04-25T15:18:26;93415.56;;;22.46;36.18
48035;BME280;33812;46.480;6.834;2023-04-25T15:22:28;93418.41;;;22.33;34.50
48035;BME280;33812;46.480;6.834;2023-04-25T15:26:31;93428.41;;;22.31;33.81
48035;BME280;33812;46.480;6.834;2023-04-25T15:30:33;93427.44;;;22.25;32.97
48035;BME280;33812;46.480;6.834;2023-04-25T15:34:35;93420.50;;;22.20;32.96
48035;BME280;33812;46.480;6.834;2023-04-25T15:38:37;93422.63;;;22.16;32.98
48035;BME280;33812;46.480;6.834;2023-04-25T15:42:45;93428.03;;;22.19;32.76
48035;BME280;33812;46.480;6.834;2023-04-25T15:46:47;93428.56;;;22.05;32.02
48035;BME280;33812;46.480;6.834;2023-04-25T15:50:49;93432.44;;;22.07;32.46
48035;BME280;33812;46.480;6.834;2023-04-25T15:54:51;93424.00;;;22.11;32.18
48035;BME280;33812;46.480;6.834;2023-04-25T15:58:55;93427.84;;;22.14;32.48
48035;BME280;33812;46.480;6.834;2023-04-25T16:02:57;93438.63;;;22.12;32.29
48035;BME280;33812;46.480;6.834;2023-04-25T16:07:01;93427.69;;;22.17;32.57
48035;BME280;33812;46.480;6.834;2023-04-25T16:11:03;93429.88;;;22.22;32.78
48035;BME280;33812;46.480;6.834;2023-04-25T16:15:07;93430.59;;;22.14;32.37
48035;BME280;33812;46.480;6.834;2023-04-25T16:19:09;93430.25;;;22.02;31.01
48035;BME280;33812;46.480;6.834;2023-04-25T16:23:10;93439.06;;;22.10;31.43
48035;BME280;33812;46.480;6.834;2023-04-25T16:27:12;93427.03;;;22.04;31.72
48035;BME280;33812;46.480;6.834;2023-04-25T16:31:15;93437.06;;;22.10;31.52
48035;BME280;33812;46.480;6.834;2023-04-25T16:35:17;93442.19;;;22.21;31.74
48035;BME280;33812;46.480;6.834;2023-04-25T16:39:19;93446.19;;;22.20;31.97
48035;BME280;33812;46.480;6.834;2023-04-25T16:43:21;93447.84;;;22.18;32.78
48035;BME280;33812;46.480;6.834;2023-04-25T16:47:25;93451.16;;;22.26;33.06
48035;BME280;33812;46.480;6.834;2023-04-25T16:51:26;93451.16;;;22.26;33.30
48035;BME280;33812;46.480;6.834;2023-04-25T16:55:28;93448.31;;;22.16;32.79
48035;BME280;33812;46.480;6.834;2023-04-25T16:59:32;93448.91;;;21.89;29.03
48035;BME280;33812;46.480;6.834;2023-04-25T17:03:35;93458.47;;;21.74;28.83
48035;BME280;33812;46.480;6.834;2023-04-25T17:07:38;93461.34;;;22.06;31.98
48035;BME280;33812;46.480;6.834;2023-04-25T17:11:40;93458.47;;;22.19;31.31
48035;BME280;33812;46.480;6.834;2023-04-25T17:15:43;93463.75;;;22.27;31.07
48035;BME280;33812;46.480;6.834;2023-04-25T17:24:32;93471.78;;;22.34;32.28
48035;BME280;33812;46.480;6.834;2023-04-25T17:28:36;93467.03;;;22.34;32.73
48035;BME280;33812;46.480;6.834;2023-04-25T17:32:37;93472.13;;;22.36;33.32
48035;BME280;33812;46.480;6.834;2023-04-25T17:36:41;93470.56;;;22.35;33.08
48035;BME280;33812;46.480;6.834;2023-04-25T17:40:44;93473.97;;;22.39;33.21
48035;BME280;33812;46.480;6.834;2023-04-25T17:44:47;93475.50;;;22.40;33.61
48035;BME280;33812;46.480;6.834;2023-04-25T17:48:49;93471.97;;;22.40;33.69
48035;BME280;33812;46.480;6.834;2023-04-25T17:52:51;93477.34;;;22.43;34.16
48035;BME280;33812;46.480;6.834;2023-04-25T17:56:54;93475.81;;;22.42;34.29
48035;BME280;33812;46.480;6.834;2023-04-25T18:00:56;93484.44;;;22.44;34.48
48035;BME280;33812;46.480;6.834;2023-04-25T18:04:58;93482.91;;;22.43;34.83
48035;BME280;33812;46.480;6.834;2023-04-25T18:09:02;93483.66;;;22.44;35.00
48035;BME280;33812;46.480;6.834;2023-04-25T18:13:16;93482.47;;;22.45;35.65
48035;BME280;33812;46.480;6.834;2023-04-25T18:17:18;93487.84;;;22.49;36.30
48035;BME280;33812;46.480;6.834;2023-04-25T18:21:24;93485.53;;;22.47;36.82
48035;BME280;33812;46.480;6.834;2023-04-25T18:25:26;93496.16;;;22.49;36.95
48035;BME280;33812;46.480;6.834;2023-04-25T18:29:29;93494.63;;;22.48;37.42
48035;BME280;33812;46.480;6.834;2023-04-25T18:33:31;93498.16;;;22.48;37.56
48035;BME280;33812;46.480;6.834;2023-04-25T18:37:33;93505.69;;;22.48;37.61
48035;BME280;33812;46.480;6.834;2023-04-25T18:41:36;93511.59;;;21.21;29.97
48035;BME280;33812;46.480;6.834;2023-04-25T18:45:40;93516.94;;;19.61;29.83
48035;BME280;33812;46.480;6.834;2023-04-25T18:49:42;93514.38;;;20.56;29.21
48035;BME280;33812;46.480;6.834;2023-04-25T18:53:44;93510.69;;;21.72;28.90
48035;BME280;33812;46.480;6.834;2023-04-25T18:57:46;93511.06;;;21.97;31.28
48035;BME280;33812;46.480;6.834;2023-04-25T19:01:49;93514.22;;;22.08;32.15
48035;BME280;33812;46.480;6.834;2023-04-25T19:05:52;93513.34;;;22.12;33.25
48035;BME280;33812;46.480;6.834;2023-04-25T19:09:54;93518.75;;;22.15;33.80
48035;BME280;33812;46.480;6.834;2023-04-25T19:13:57;93521.81;;;22.17;34.01
48035;BME280;33812;46.480;6.834;2023-04-25T19:18:01;93530.88;;;22.18;34.45
48035;BME280;33812;46.480;6.834;2023-04-25T19:22:04;93528.91;;;22.18;35.02
48035;BME280;33812;46.480;6.834;2023-04-25T19:26:07;93529.81;;;22.15;35.62
48035;BME280;33812;46.480;6.834;2023-04-25T19:30:11;93535.34;;;22.15;36.17
48035;BME280;33812;46.480;6.834;2023-04-25T19:34:14;93522.72;;;22.14;36.42
48035;BME280;33812;46.480;6.834;2023-04-25T19:38:16;93529.66;;;22.19;36.23
48035;BME280;33812;46.480;6.834;2023-04-25T19:42:18;93530.44;;;22.19;36.32
48035;BME280;33812;46.480;6.834;2023-04-25T19:46:21;93534.00;;;22.20;36.84
48035;BME280;33812;46.480;6.834;2023-04-25T19:50:24;93531.09;;;22.24;36.82
48035;BME280;33812;46.480;6.834;2023-04-25T19:54:26;93533.22;;;22.19;37.17
48035;BME280;33812;46.480;6.834;2023-04-25T19:58:28;93534.44;;;22.18;37.19
48035;BME280;33812;46.480;6.834;2023-04-25T20:02:30;93542.41;;;22.16;37.65
48035;BME280;33812;46.480;6.834;2023-04-25T20:06:33;93542.09;;;22.14;38.01
48035;BME280;33812;46.480;6.834;2023-04-25T20:10:37;93535.78;;;22.14;37.98
48035;BME280;33812;46.480;6.834;2023-04-25T20:14:39;93536.44;;;22.18;37.61
48035;BME280;33812;46.480;6.834;2023-04-25T20:18:40;93533.22;;;22.19;37.47
48035;BME280;33812;46.480;6.834;2023-04-25T20:22:44;93532.00;;;22.20;36.91
48035;BME280;33812;46.480;6.834;2023-04-25T20:26:45;93536.09;;;22.16;37.84
48035;BME280;33812;46.480;6.834;2023-04-25T20:30:47;93543.66;;;22.15;37.73
48035;BME280;33812;46.480;6.834;2023-04-25T20:34:49;93541.00;;;22.12;37.78
48035;BME280;33812;46.480;6.834;2023-04-25T20:38:52;93538.25;;;22.12;37.86
48035;BME280;33812;46.480;6.834;2023-04-25T20:42:54;93541.47;;;22.10;37.94
48035;BME280;33812;46.480;6.834;2023-04-25T20:46:56;93535.34;;;22.15;37.85
48035;BME280;33812;46.480;6.834;2023-04-25T20:50:58;93536.22;;;22.12;37.58
48035;BME280;33812;46.480;6.834;2023-04-25T20:55:02;93531.28;;;22.07;38.04
48035;BME280;33812;46.480;6.834;2023-04-25T20:59:04;93534.03;;;22.07;37.89
48035;BME280;33812;46.480;6.834;2023-04-25T21:03:06;93538.03;;;22.06;37.90
48035;BME280;33812;46.480;6.834;2023-04-25T21:07:08;93541.25;;;22.04;37.88
48035;BME280;33812;46.480;6.834;2023-04-25T21:11:13;93538.03;;;22.06;37.79
48035;BME280;33812;46.480;6.834;2023-04-25T21:15:15;93529.75;;;22.06;37.64
48035;BME280;33812;46.480;6.834;2023-04-25T21:19:19;93526.97;;;22.06;37.45
48035;BME280;33812;46.480;6.834;2023-04-25T21:23:21;93533.72;;;22.05;37.67
48035;BME280;33812;46.480;6.834;2023-04-25T21:27:24;93528.97;;;22.05;37.55
48035;BME280;33812;46.480;6.834;2023-04-25T21:31:26;93531.41;;;22.03;37.72
48035;BME280;33812;46.480;6.834;2023-04-25T21:35:27;93529.41;;;22.04;37.49